Time;durP1;ratioP1;P1;durP2;ratioP2;P2;SDS_P1;SDS_P2;PMS_P1;PMS_P2;Temp;Humidity;BMP_temperature;BMP_pressure;BME280_temperature;BME280_humidity;BME280_pressure;Samples;Min_cycle;Max_cycle;Signal;HPM_P1;HPM_P2
2023/12/28 00:00:54;;;;;;;3.28;1.77;;;9.40;99.90;;;;;;4232488;28;20458;-83
2023/12/28 00:02:54;;;;;;;6.03;1.60;;;9.50;99.90;;;;;;4250612;27;20086;-84
2023/12/28 00:04:55;;;;;;;3.92;1.80;;;9.40;99.90;;;;;;4214940;28;20051;-84
2023/12/28 00:06:56;;;;;;;3.33;1.70;;;9.20;99.90;;;;;;4215615;28;20060;-84
2023/12/28 00:08:56;;;;;;;3.67;1.92;;;10.10;99.90;;;;;;4250655;27;20039;-84
2023/12/28 00:10:58;;;;;;;3.55;2.03;;;10.30;99.90;;;;;;4215796;28;20056;-84
2023/12/28 00:12:59;;;;;;;3.85;1.88;;;10.20;99.90;;;;;;4250627;27;20103;-84
2023/12/28 00:15:00;;;;;;;6.25;2.25;;;9.40;99.90;;;;;;4232280;28;20490;-84
2023/12/28 00:17:01;;;;;;;5.35;2.20;;;9.40;99.90;;;;;;4250073;27;20084;-84
2023/12/28 00:19:04;;;;;;;4.47;1.90;;;9.30;99.90;;;;;;4250677;27;20406;-84
2023/12/28 00:21:05;;;;;;;5.05;2.33;;;9.80;99.90;;;;;;4234715;28;20043;-84
2023/12/28 00:23:06;;;;;;;7.75;2.15;;;9.60;99.90;;;;;;4217236;28;20044;-83
2023/12/28 00:25:07;;;;;;;4.18;1.60;;;9.40;99.90;;;;;;4218533;28;20512;-84
2023/12/28 00:27:07;;;;;;;4.38;1.98;;;9.30;99.90;;;;;;4219064;28;20051;-84
2023/12/28 00:29:09;;;;;;;4.15;2.33;;;10.00;99.90;;;;;;4219169;28;20083;-83
2023/12/28 00:31:10;;;;;;;7.25;2.83;;;8.30;99.90;;;;;;4233167;28;20138;-84
2023/12/28 00:33:10;;;;;;;4.95;2.35;;;9.40;99.90;;;;;;4231599;28;20040;-83
2023/12/28 00:35:11;;;;;;;3.25;1.90;;;9.40;99.90;;;;;;4232422;28;20044;-84
2023/12/28 00:37:13;;;;;;;4.82;1.80;;;9.80;99.90;;;;;;4251463;27;20043;-84
2023/12/28 00:39:15;;;;;;;5.88;2.00;;;10.00;99.90;;;;;;4232749;28;20500;-84
2023/12/28 00:41:15;;;;;;;6.35;1.98;;;9.30;99.90;;;;;;4233361;28;20078;-84
2023/12/28 00:43:17;;;;;;;6.03;2.20;;;9.80;99.90;;;;;;4251920;27;20399;-84
2023/12/28 00:45:19;;;;;;;2.97;1.67;;;9.40;99.90;;;;;;4251322;27;20046;-84
2023/12/28 00:47:19;;;;;;;5.15;2.08;;;10.00;99.90;;;;;;4236153;27;20181;-84
2023/12/28 00:49:21;;;;;;;6.22;2.25;;;9.90;99.90;;;;;;4233764;28;20043;-84
2023/12/28 00:51:21;;;;;;;3.83;2.03;;;9.80;99.90;;;;;;4231625;28;20054;-84
2023/12/28 00:53:22;;;;;;;4.63;1.92;;;9.30;99.90;;;;;;4250325;27;20043;-84
2023/12/28 00:55:23;;;;;;;7.97;2.05;;;10.00;99.90;;;;;;4232250;28;20415;-84
2023/12/28 00:57:23;;;;;;;5.72;2.10;;;10.50;99.90;;;;;;4249701;27;20049;-84
2023/12/28 00:59:24;;;;;;;4.68;1.75;;;9.40;99.90;;;;;;4214187;28;20044;-84
2023/12/28 01:01:25;;;;;;;4.95;1.67;;;10.00;99.90;;;;;;4249505;27;20407;-83
2023/12/28 01:03:25;;;;;;;6.63;2.15;;;9.20;99.90;;;;;;4248348;27;20122;-84
2023/12/28 01:05:28;;;;;;;8.55;2.20;;;10.00;99.90;;;;;;4249136;27;20071;-84
2023/12/28 01:07:29;;;;;;;7.25;2.00;;;9.40;99.90;;;;;;4231462;28;20036;-84
2023/12/28 01:09:32;;;;;;;5.35;2.08;;;9.90;99.90;;;;;;4231221;28;20483;-85
2023/12/28 01:11:32;;;;;;;8.55;2.33;;;10.00;99.90;;;;;;4249529;27;20047;-84
2023/12/28 01:13:35;;;;;;;4.47;2.15;;;9.70;99.90;;;;;;4231476;28;20377;-84
2023/12/28 01:15:36;;;;;;;11.73;3.92;;;9.40;99.90;;;;;;4214328;28;20048;-84
2023/12/28 01:17:37;;;;;;;3.75;1.77;;;9.40;99.90;;;;;;4249402;27;20122;-84
2023/12/28 01:19:38;;;;;;;4.13;1.80;;;10.40;99.90;;;;;;4231956;28;20077;-84
2023/12/28 01:21:40;;;;;;;5.75;1.90;;;9.40;99.90;;;;;;4251810;27;20480;-84
2023/12/28 01:23:40;;;;;;;5.55;1.95;;;8.90;99.90;;;;;;4251822;27;20068;-84
2023/12/28 01:25:41;;;;;;;4.70;1.92;;;10.20;99.90;;;;;;4246855;28;20035;-84
2023/12/28 01:27:42;;;;;;;5.53;1.92;;;9.10;99.90;;;;;;4252600;28;20122;-84
2023/12/28 01:29:42;;;;;;;7.68;2.30;;;9.50;99.90;;;;;;4270234;27;20023;-84
2023/12/28 01:31:43;;;;;;;13.38;2.15;;;10.30;99.90;;;;;;4252186;28;20040;-84
2023/12/28 01:33:44;;;;;;;9.35;2.95;;;9.60;99.90;;;;;;4251943;28;20027;-85
2023/12/28 01:35:44;;;;;;;5.50;1.63;;;10.30;99.90;;;;;;4252503;28;20027;-85
2023/12/28 01:37:45;;;;;;;4.28;2.03;;;9.00;99.90;;;;;;4252232;27;20050;-84
2023/12/28 01:39:46;;;;;;;7.97;2.17;;;9.40;99.90;;;;;;4251938;28;20022;-84
2023/12/28 01:41:46;;;;;;;9.80;2.38;;;10.10;99.90;;;;;;4219667;28;20489;-84
2023/12/28 01:43:48;;;;;;;6.80;2.38;;;9.80;99.90;;;;;;4213724;28;20044;-84
2023/12/28 01:45:49;;;;;;;7.30;2.08;;;9.30;99.90;;;;;;4230465;28;20073;-84
2023/12/28 01:47:52;;;;;;;4.78;1.70;;;9.30;99.90;;;;;;4213773;28;20047;-85
2023/12/28 01:49:55;;;;;;;5.82;2.35;;;9.60;99.90;;;;;;4230233;28;20055;-84
2023/12/28 01:51:57;;;;;;;7.97;1.98;;;9.40;99.90;;;;;;4214258;28;20059;-85
2023/12/28 01:53:58;;;;;;;12.95;2.40;;;9.90;99.90;;;;;;4249143;27;20043;-84
2023/12/28 01:56:00;;;;;;;4.80;1.45;;;9.90;99.90;;;;;;4232081;28;20044;-84
2023/12/28 01:58:02;;;;;;;13.07;3.42;;;9.30;99.90;;;;;;4249513;27;20039;-84
2023/12/28 02:00:04;;;;;;;6.97;2.05;;;9.30;99.90;;;;;;4231170;28;20047;-84
2023/12/28 02:02:04;;;;;;;5.28;1.75;;;9.30;99.90;;;;;;4229919;28;20466;-84
2023/12/28 02:04:06;;;;;;;8.23;1.90;;;9.30;99.90;;;;;;4230809;28;20112;-83
2023/12/28 02:06:07;;;;;;;8.32;1.80;;;9.30;99.90;;;;;;4213776;28;20044;-84
2023/12/28 02:08:08;;;;;;;6.88;1.80;;;9.30;99.90;;;;;;4249100;28;20036;-84
2023/12/28 02:10:09;;;;;;;5.90;1.88;;;10.10;99.90;;;;;;4252674;28;20039;-84
2023/12/28 02:12:09;;;;;;;5.72;2.30;;;9.30;99.90;;;;;;4218167;28;20040;-84
2023/12/28 02:14:11;;;;;;;7.07;1.77;;;10.30;99.90;;;;;;4251995;28;20047;-84
2023/12/28 02:16:15;;;;;;;12.65;1.90;;;9.30;99.90;;;;;;4252800;28;20015;-84
2023/12/28 02:18:23;;;;;;;5.28;1.35;;;9.30;99.90;;;;;;4235234;28;20032;-85
2023/12/28 02:20:27;;;;;;;6.55;2.45;;;9.30;99.90;;;;;;4234721;28;20040;-84
2023/12/28 02:22:29;;;;;;;9.00;3.20;;;9.40;99.90;;;;;;4235040;28;20047;-84
2023/12/28 02:24:30;;;;;;;7.03;2.10;;;9.30;99.90;;;;;;4249682;28;20055;-84
2023/12/28 02:26:31;;;;;;;15.40;1.75;;;9.30;99.90;;;;;;4252071;28;20019;-84
2023/12/28 02:28:31;;;;;;;9.52;2.53;;;9.30;99.90;;;;;;4235306;28;20122;-84
2023/12/28 02:30:32;;;;;;;7.15;2.00;;;9.40;99.90;;;;;;4266122;28;20058;-84
2023/12/28 02:32:57;;;;;;;7.85;1.85;;;9.50;99.90;;;;;;4232803;28;20107;-84
2023/12/28 02:35:06;;;;;;;9.32;1.55;;;9.30;99.90;;;;;;4213584;28;20113;-84
2023/12/28 02:37:08;;;;;;;14.18;1.85;;;10.00;99.90;;;;;;4248329;28;20376;-84
2023/12/28 02:39:14;;;;;;;7.38;2.00;;;9.30;99.90;;;;;;4230462;28;20056;-84
2023/12/28 02:41:15;;;;;;;9.73;2.10;;;9.30;99.90;;;;;;4248649;28;20099;-84
2023/12/28 02:43:17;;;;;;;9.70;1.92;;;9.30;99.90;;;;;;4230198;28;20048;-84
2023/12/28 02:45:19;;;;;;;9.43;1.83;;;9.80;99.90;;;;;;4247556;28;20035;-84
2023/12/28 02:47:22;;;;;;;8.07;1.88;;;9.30;99.90;;;;;;4230379;28;20040;-84
2023/12/28 02:49:23;;;;;;;13.80;3.03;;;9.60;99.90;;;;;;4213556;28;20151;-84
2023/12/28 02:51:23;;;;;;;5.18;1.52;;;9.50;99.90;;;;;;4248343;28;20039;-84
2023/12/28 02:53:24;;;;;;;5.40;1.73;;;9.50;99.90;;;;;;4230158;28;20538;-84
2023/12/28 02:55:25;;;;;;;9.27;2.00;;;9.40;99.90;;;;;;4213084;28;20464;-85
2023/12/28 02:57:27;;;;;;;7.60;1.92;;;9.30;99.90;;;;;;4229551;28;20178;-84
2023/12/28 02:59:28;;;;;;;10.70;2.55;;;10.60;99.90;;;;;;4229989;28;20147;-84
2023/12/28 03:01:28;;;;;;;5.70;2.00;;;9.40;99.90;;;;;;4229982;28;20211;-84
2023/12/28 03:03:29;;;;;;;8.13;1.90;;;9.80;99.90;;;;;;4229733;28;20419;-84
2023/12/28 03:05:30;;;;;;;10.65;2.35;;;10.70;99.90;;;;;;4248003;28;20043;-84
2023/12/28 03:07:31;;;;;;;9.88;2.15;;;9.20;99.90;;;;;;4229469;28;20046;-83
2023/12/28 03:09:31;;;;;;;13.10;2.28;;;10.30;99.90;;;;;;4230093;28;20039;-84
2023/12/28 03:11:32;;;;;;;8.57;2.35;;;9.50;99.90;;;;;;4229348;28;20055;-84
2023/12/28 03:13:33;;;;;;;8.60;2.88;;;9.60;99.90;;;;;;4248394;27;20538;-84
2023/12/28 03:15:33;;;;;;;5.95;1.65;;;10.00;99.90;;;;;;4232742;28;20035;-84
2023/12/28 03:17:36;;;;;;;9.07;2.53;;;9.60;99.90;;;;;;4232826;28;20051;-83
2023/12/28 03:19:37;;;;;;;11.93;1.85;;;10.70;99.90;;;;;;4232641;28;20044;-84
2023/12/28 03:21:40;;;;;;;12.02;2.45;;;9.70;99.90;;;;;;4251295;27;20050;-83
2023/12/28 03:23:41;;;;;;;9.07;1.75;;;9.70;99.90;;;;;;4215384;28;20054;-84
2023/12/28 03:25:42;;;;;;;7.80;2.70;;;10.50;99.90;;;;;;4250552;27;20475;-84
2023/12/28 03:27:42;;;;;;;7.95;1.85;;;10.30;99.90;;;;;;4233231;28;20457;-83
2023/12/28 03:29:43;;;;;;;7.13;2.22;;;9.70;99.90;;;;;;4251127;27;20039;-84
2023/12/28 03:31:43;;;;;;;9.63;1.88;;;9.80;99.90;;;;;;4251773;27;20039;-83
2023/12/28 03:33:44;;;;;;;10.93;1.88;;;10.50;99.90;;;;;;4252268;27;20096;-84
2023/12/28 03:35:45;;;;;;;8.73;1.75;;;9.90;99.90;;;;;;4252000;27;20035;-84
2023/12/28 03:37:45;;;;;;;6.47;1.50;;;10.00;99.90;;;;;;4216064;28;20131;-84
2023/12/28 03:39:46;;;;;;;10.38;1.42;;;9.90;99.90;;;;;;4251334;27;20042;-84
2023/12/28 03:41:47;;;;;;;6.95;1.48;;;9.90;99.90;;;;;;4250670;27;20039;-84
2023/12/28 03:43:48;;;;;;;9.05;2.60;;;10.60;99.90;;;;;;4250728;27;20043;-84
2023/12/28 03:45:49;;;;;;;4.60;1.30;;;10.30;99.90;;;;;;4232477;28;20377;-84
2023/12/28 03:47:51;;;;;;;6.25;1.15;;;10.10;99.90;;;;;;4231715;28;20100;-84
2023/12/28 03:49:51;;;;;;;7.03;1.83;;;10.00;99.90;;;;;;4250523;27;20066;-84
2023/12/28 03:51:52;;;;;;;9.82;1.63;;;10.10;99.90;;;;;;4232064;28;20047;-83
2023/12/28 03:53:53;;;;;;;9.90;1.58;;;10.90;99.90;;;;;;4232293;28;20043;-84
2023/12/28 03:55:53;;;;;;;6.03;1.55;;;10.80;99.90;;;;;;4215340;28;20100;-84
2023/12/28 03:57:54;;;;;;;5.82;1.60;;;10.10;99.90;;;;;;4232302;28;20524;-84
2023/12/28 03:59:56;;;;;;;10.95;1.73;;;10.60;99.90;;;;;;4232095;28;20082;-84
2023/12/28 04:01:57;;;;;;;9.13;3.10;;;10.70;99.90;;;;;;4250081;27;20055;-85
2023/12/28 04:03:57;;;;;;;8.23;1.77;;;10.80;99.90;;;;;;4250243;27;20053;-83
2023/12/28 04:05:58;;;;;;;7.03;1.33;;;10.10;99.90;;;;;;4215395;28;20177;-84
2023/12/28 04:08:00;;;;;;;10.30;1.90;;;10.10;99.90;;;;;;4232319;28;20052;-84
2023/12/28 04:10:01;;;;;;;12.27;3.03;;;11.10;99.90;;;;;;4214766;28;20048;-84
2023/12/28 04:12:01;;;;;;;11.18;1.70;;;10.10;99.90;;;;;;4232217;28;20159;-84
2023/12/28 04:14:02;;;;;;;7.13;1.80;;;10.10;99.90;;;;;;4232228;28;20044;-83
2023/12/28 04:16:04;;;;;;;9.80;1.80;;;10.50;99.90;;;;;;4232566;28;20412;-84
2023/12/28 04:18:05;;;;;;;3.90;1.30;;;10.20;99.90;;;;;;4232619;28;20047;-83
2023/12/28 04:20:07;;;;;;;8.20;2.10;;;10.20;99.90;;;;;;4252403;27;20047;-84
2023/12/28 04:22:07;;;;;;;8.55;1.38;;;10.20;99.90;;;;;;4233950;28;20135;-84
2023/12/28 04:24:11;;;;;;;8.25;1.42;;;10.20;99.90;;;;;;4218151;28;20508;-84
2023/12/28 04:26:11;;;;;;;10.23;1.63;;;10.30;99.90;;;;;;4232540;28;20043;-83
2023/12/28 04:28:13;;;;;;;7.88;1.70;;;10.40;99.90;;;;;;4231734;28;20087;-84
2023/12/28 04:30:14;;;;;;;7.93;1.58;;;10.30;99.90;;;;;;4249799;27;20043;-84
2023/12/28 04:32:14;;;;;;;9.93;2.05;;;10.30;99.90;;;;;;4249789;27;20506;-84
2023/12/28 04:34:15;;;;;;;10.98;1.25;;;10.20;99.90;;;;;;4248770;27;20058;-83
2023/12/28 04:36:16;;;;;;;7.60;1.92;;;10.20;99.90;;;;;;4231654;28;20134;-84
2023/12/28 04:38:18;;;;;;;15.18;1.73;;;10.30;99.90;;;;;;4250162;27;20047;-83
2023/12/28 04:40:19;;;;;;;8.05;1.55;;;10.70;99.90;;;;;;4249298;27;20099;-84
2023/12/28 04:42:20;;;;;;;8.40;1.40;;;10.40;99.90;;;;;;4249826;27;20491;-84
2023/12/28 04:44:20;;;;;;;10.80;1.77;;;10.40;99.90;;;;;;4249576;27;20039;-84
2023/12/28 04:46:21;;;;;;;14.95;2.20;;;10.30;99.90;;;;;;4231616;28;20043;-84
2023/12/28 04:48:25;;;;;;;9.88;1.38;;;10.60;99.90;;;;;;4249474;27;20044;-83
2023/12/28 04:50:26;;;;;;;12.65;2.38;;;10.30;99.90;;;;;;4249335;27;20042;-84
2023/12/28 04:52:27;;;;;;;12.80;1.70;;;10.60;99.90;;;;;;4231327;28;20484;-84
2023/12/28 04:54:27;;;;;;;11.85;2.10;;;10.80;99.90;;;;;;4214211;28;20040;-84
2023/12/28 04:56:29;;;;;;;9.88;1.85;;;10.60;99.90;;;;;;4231049;28;20071;-83
2023/12/28 04:58:29;;;;;;;8.38;2.00;;;10.40;99.90;;;;;;4249572;27;20515;-84
2023/12/28 05:00:31;;;;;;;4.80;1.15;;;10.40;99.90;;;;;;4249353;27;20162;-84
2023/12/28 05:02:32;;;;;;;7.63;1.73;;;11.00;99.90;;;;;;4248902;27;20130;-84
2023/12/28 05:04:33;;;;;;;10.13;2.25;;;10.40;99.90;;;;;;4249459;27;20084;-84
2023/12/28 05:06:33;;;;;;;9.60;2.22;;;10.40;99.90;;;;;;4214384;28;20039;-84
2023/12/28 05:08:34;;;;;;;8.93;1.80;;;11.10;99.90;;;;;;4230976;28;20044;-84
2023/12/28 05:10:35;;;;;;;5.55;1.83;;;10.50;99.90;;;;;;4248649;27;20399;-84
2023/12/28 05:12:35;;;;;;;5.25;1.33;;;11.00;99.90;;;;;;4249441;27;20184;-84
2023/12/28 05:14:36;;;;;;;8.07;1.45;;;10.50;99.90;;;;;;4231057;28;20126;-84
2023/12/28 05:16:38;;;;;;;10.90;1.85;;;10.60;99.90;;;;;;4230859;28;20100;-83
2023/12/28 05:18:38;;;;;;;7.60;1.75;;;11.20;99.90;;;;;;4214014;28;20060;-84
2023/12/28 05:20:39;;;;;;;14.68;2.25;;;11.00;99.90;;;;;;4230492;28;20043;-84
2023/12/28 05:22:40;;;;;;;8.23;1.45;;;10.50;99.90;;;;;;4213398;28;20058;-83
2023/12/28 05:24:40;;;;;;;7.07;1.52;;;10.20;99.90;;;;;;4230702;28;20039;-84
2023/12/28 05:26:41;;;;;;;12.23;2.50;;;10.40;99.90;;;;;;4248971;27;20043;-84
2023/12/28 05:28:42;;;;;;;10.27;1.63;;;10.50;99.90;;;;;;4249077;27;20106;-84
2023/12/28 05:30:42;;;;;;;10.68;1.58;;;10.50;99.90;;;;;;4248297;27;20168;-84
2023/12/28 05:32:43;;;;;;;5.25;1.60;;;10.40;99.90;;;;;;4248723;27;20042;-84
2023/12/28 05:34:43;;;;;;;8.48;1.48;;;10.50;99.90;;;;;;4213815;28;20063;-84
2023/12/28 05:36:45;;;;;;;15.98;2.35;;;10.90;99.90;;;;;;4248354;27;20078;-83
2023/12/28 05:38:47;;;;;;;6.57;1.70;;;10.40;99.90;;;;;;4248853;27;20053;-84
2023/12/28 05:40:47;;;;;;;8.80;1.83;;;11.00;99.90;;;;;;4248743;27;20114;-84
2023/12/28 05:42:49;;;;;;;17.70;2.45;;;10.40;99.90;;;;;;4213329;28;20101;-83
2023/12/28 05:44:50;;;;;;;9.25;2.38;;;11.00;99.90;;;;;;4231187;28;20039;-84
2023/12/28 05:46:52;;;;;;;11.55;1.95;;;10.40;99.90;;;;;;4231678;28;20477;-84
2023/12/28 05:48:52;;;;;;;12.05;2.22;;;11.10;99.90;;;;;;4213905;28;20040;-84
2023/12/28 05:50:53;;;;;;;6.18;1.40;;;10.70;99.90;;;;;;4214572;28;20527;-83
2023/12/28 05:52:54;;;;;;;9.77;1.30;;;11.00;99.90;;;;;;4248896;27;20039;-84
2023/12/28 05:54:56;;;;;;;10.98;1.48;;;10.70;99.90;;;;;;4248588;27;20078;-83
2023/12/28 05:56:59;;;;;;;10.93;1.75;;;10.50;99.90;;;;;;4248213;27;20078;-84
2023/12/28 05:58:59;;;;;;;9.13;1.33;;;11.30;99.90;;;;;;4248694;27;20043;-83
2023/12/28 06:01:00;;;;;;;10.57;1.70;;;10.70;99.90;;;;;;4213432;28;20129;-83
2023/12/28 06:03:04;;;;;;;5.85;1.67;;;11.30;99.90;;;;;;4213271;28;20048;-83
2023/12/28 06:05:05;;;;;;;6.97;1.67;;;10.60;99.90;;;;;;4213559;28;20048;-83
2023/12/28 06:07:05;;;;;;;6.97;1.60;;;10.60;99.90;;;;;;4248751;27;20058;-83
2023/12/28 06:09:07;;;;;;;13.65;1.35;;;11.60;99.90;;;;;;4248676;28;20114;-83
2023/12/28 06:11:08;;;;;;;10.85;2.10;;;11.40;99.90;;;;;;4230003;28;20127;-84
2023/12/28 06:13:09;;;;;;;14.23;1.70;;;11.10;99.90;;;;;;4248858;28;20094;-84
2023/12/28 06:15:10;;;;;;;9.02;1.65;;;;;;;;;;4230200;28;20040;-83
2023/12/28 06:17:11;;;;;;;13.95;2.33;;;11.30;99.90;;;;;;4248541;28;20559;-82
2023/12/28 06:19:12;;;;;;;10.13;1.80;;;10.50;99.90;;;;;;4248646;28;20039;-82
2023/12/28 06:21:13;;;;;;;11.52;1.40;;;10.70;99.90;;;;;;4248661;28;20392;-83
2023/12/28 06:23:13;;;;;;;12.52;2.30;;;10.20;99.90;;;;;;4230240;28;20063;-83
2023/12/28 06:25:14;;;;;;;8.60;1.35;;;10.50;99.90;;;;;;4248454;28;20477;-83
2023/12/28 06:27:15;;;;;;;13.23;2.22;;;10.80;99.90;;;;;;4230253;28;20077;-83
2023/12/28 06:29:16;;;;;;;11.07;2.03;;;10.40;99.90;;;;;;4248201;28;20046;-83
2023/12/28 06:31:17;;;;;;;19.25;2.60;;;10.50;99.90;;;;;;4229863;28;20091;-83
2023/12/28 06:33:18;;;;;;;16.02;2.70;;;;;;;;;;4230583;28;20048;-84
2023/12/28 06:35:20;;;;;;;8.35;2.17;;;10.40;99.90;;;;;;4230130;28;20131;-84
2023/12/28 06:37:20;;;;;;;13.55;1.80;;;10.80;99.90;;;;;;4248277;28;20047;-84
2023/12/28 06:39:22;;;;;;;10.93;1.95;;;10.60;99.90;;;;;;4248445;28;20046;-84
2023/12/28 06:41:25;;;;;;;8.40;2.15;;;10.70;99.90;;;;;;4213274;28;20151;-83
2023/12/28 06:43:26;;;;;;;13.65;1.95;;;10.60;99.90;;;;;;4248521;28;20043;-84
2023/12/28 06:45:27;;;;;;;17.33;1.95;;;11.50;99.90;;;;;;4229194;28;20118;-83
2023/12/28 06:47:28;;;;;;;11.35;2.33;;;11.40;99.90;;;;;;4230096;28;20265;-83
2023/12/28 06:49:29;;;;;;;6.57;1.55;;;10.60;99.90;;;;;;4231962;28;20051;-83
2023/12/28 06:51:29;;;;;;;22.85;2.78;;;10.60;99.90;;;;;;4233020;28;20071;-83
2023/12/28 06:53:30;;;;;;;11.68;1.98;;;10.60;99.90;;;;;;4251353;27;20042;-83
2023/12/28 06:55:31;;;;;;;11.77;1.95;;;10.60;99.90;;;;;;4216247;28;20036;-84
2023/12/28 06:57:32;;;;;;;8.38;1.52;;;11.10;99.90;;;;;;4216211;28;20135;-84
2023/12/28 06:59:33;;;;;;;10.90;3.42;;;10.70;99.90;;;;;;4233135;28;20052;-83
2023/12/28 07:01:33;;;;;;;13.45;1.60;;;10.60;99.90;;;;;;4251223;27;20483;-84
2023/12/28 07:03:35;;;;;;;16.05;2.05;;;11.00;99.90;;;;;;4250518;27;20047;-84
2023/12/28 07:05:37;;;;;;;14.50;1.90;;;10.60;99.90;;;;;;4251159;27;20555;-83
2023/12/28 07:07:38;;;;;;;20.00;2.60;;;11.20;99.90;;;;;;4251263;27;20043;-83
2023/12/28 07:09:39;;;;;;;8.07;1.92;;;10.70;99.90;;;;;;4232904;28;20052;-83
2023/12/28 07:11:39;;;;;;;12.95;1.83;;;10.90;99.90;;;;;;4232982;28;20091;-84
2023/12/28 07:13:40;;;;;;;13.02;1.95;;;11.60;99.90;;;;;;4250614;27;20035;-83
2023/12/28 07:15:41;;;;;;;10.45;1.88;;;10.70;99.90;;;;;;4232917;28;20066;-83
2023/12/28 07:17:41;;;;;;;13.73;1.83;;;10.80;99.90;;;;;;4215818;28;20052;-83
2023/12/28 07:19:42;;;;;;;15.48;2.22;;;11.00;99.90;;;;;;4250976;27;20047;-83
2023/12/28 07:21:43;;;;;;;12.27;2.85;;;10.70;99.90;;;;;;4233005;28;20074;-82
2023/12/28 07:23:48;;;;;;;17.83;2.75;;;11.20;99.90;;;;;;4215503;28;20043;-83
2023/12/28 07:25:49;;;;;;;11.98;2.50;;;10.70;99.90;;;;;;4232705;28;20538;-83
2023/12/28 07:27:50;;;;;;;12.95;1.58;;;11.10;99.90;;;;;;4215462;28;20040;-83
2023/12/28 07:29:50;;;;;;;16.48;2.58;;;10.70;99.90;;;;;;4250710;27;20105;-83
2023/12/28 07:31:51;;;;;;;12.00;2.10;;;10.70;99.90;;;;;;4232482;28;20040;-83
2023/12/28 07:33:53;;;;;;;14.95;3.17;;;10.70;99.90;;;;;;4215614;28;20068;-83
2023/12/28 07:35:54;;;;;;;11.57;2.25;;;10.70;99.90;;;;;;4233125;28;20488;-82
2023/12/28 07:37:55;;;;;;;23.33;2.53;;;10.80;99.90;;;;;;4233726;28;20054;-83
2023/12/28 07:39:56;;;;;;;11.05;2.40;;;11.00;99.90;;;;;;4255703;27;20039;-82
2023/12/28 07:41:57;;;;;;;12.27;1.67;;;10.60;99.90;;;;;;4261848;27;20039;-83
2023/12/28 07:43:58;;;;;;;16.27;2.63;;;10.70;99.90;;;;;;4271897;27;20035;-83
2023/12/28 07:46:00;;;;;;;11.98;3.05;;;10.70;99.90;;;;;;4254077;28;20043;-83
2023/12/28 07:48:01;;;;;;;14.25;1.58;;;11.60;99.90;;;;;;4271516;27;20065;-83
2023/12/28 07:50:02;;;;;;;14.98;2.42;;;10.70;99.90;;;;;;4271601;27;20035;-82
2023/12/28 07:52:03;;;;;;;14.68;1.88;;;10.70;99.90;;;;;;4270654;27;20035;-83
2023/12/28 07:54:05;;;;;;;21.20;2.33;;;10.80;99.90;;;;;;4249350;28;20043;-83
2023/12/28 07:56:05;;;;;;;13.63;1.75;;;11.10;99.90;;;;;;4247818;28;20069;-83
2023/12/28 07:58:06;;;;;;;12.98;2.53;;;10.80;99.90;;;;;;4253872;27;20042;-83
2023/12/28 08:00:08;;;;;;;16.25;2.92;;;10.80;99.90;;;;;;4214911;28;20494;-85
2023/12/28 08:02:08;;;;;;;15.45;2.60;;;10.80;99.90;;;;;;4250276;27;20097;-85
2023/12/28 08:04:09;;;;;;;15.05;2.88;;;11.40;99.90;;;;;;4232196;28;20508;-83
2023/12/28 08:06:12;;;;;;;18.10;1.80;;;10.80;99.90;;;;;;4251838;27;20158;-83
2023/12/28 08:08:13;;;;;;;18.05;2.83;;;10.80;99.90;;;;;;4250471;27;20039;-84
2023/12/28 08:10:13;;;;;;;14.35;2.58;;;10.80;99.90;;;;;;4251083;27;20085;-83
2023/12/28 08:12:14;;;;;;;18.60;2.75;;;10.90;99.90;;;;;;4250533;27;20039;-82
2023/12/28 08:14:16;;;;;;;23.45;2.92;;;10.70;99.90;;;;;;4215335;28;20106;-83
2023/12/28 08:16:16;;;;;;;22.88;2.38;;;10.60;99.90;;;;;;4233537;28;20054;-83
2023/12/28 08:18:18;;;;;;;18.05;2.17;;;11.00;99.90;;;;;;4232373;28;20036;-83
2023/12/28 08:20:19;;;;;;;20.45;2.80;;;11.70;99.90;;;;;;4250455;27;20047;-83
2023/12/28 08:22:20;;;;;;;23.73;2.25;;;11.40;99.90;;;;;;4215689;28;20043;-83
2023/12/28 08:24:21;;;;;;;20.75;4.53;;;11.50;99.90;;;;;;4251227;27;20610;-83
2023/12/28 08:26:23;;;;;;;23.40;2.75;;;11.00;99.90;;;;;;4233096;28;20051;-83
2023/12/28 08:28:23;;;;;;;11.35;2.58;;;12.10;99.90;;;;;;4232674;28;20039;-83
2023/12/28 08:30:24;;;;;;;16.95;2.97;;;11.00;99.90;;;;;;4233052;28;20118;-83
2023/12/28 08:32:26;;;;;;;24.63;2.78;;;11.00;99.90;;;;;;4251458;27;20419;-83
2023/12/28 08:34:27;;;;;;;23.73;3.22;;;11.00;99.90;;;;;;4219053;28;20044;-84
2023/12/28 08:36:29;;;;;;;18.45;3.05;;;11.00;99.90;;;;;;4228762;28;20123;-84
2023/12/28 08:38:29;;;;;;;23.30;3.42;;;11.40;99.90;;;;;;4268638;27;20031;-84
2023/12/28 08:40:30;;;;;;;17.42;2.72;;;11.10;99.90;;;;;;4268737;27;20061;-84
2023/12/28 08:42:30;;;;;;;14.38;3.08;;;11.10;99.90;;;;;;4268475;27;20047;-84
2023/12/28 08:44:33;;;;;;;20.60;2.80;;;11.30;99.90;;;;;;4269309;27;20042;-83
2023/12/28 08:46:34;;;;;;;20.70;3.50;;;11.10;99.90;;;;;;4254982;27;20035;-84
2023/12/28 08:48:35;;;;;;;20.45;4.20;;;11.10;99.90;;;;;;4253085;27;20175;-84
2023/12/28 08:50:35;;;;;;;13.70;3.22;;;11.10;99.90;;;;;;4234426;28;20043;-84
2023/12/28 08:52:36;;;;;;;15.38;2.42;;;11.10;99.90;;;;;;4217089;28;20080;-84
2023/12/28 08:54:36;;;;;;;19.52;2.75;;;11.40;99.90;;;;;;4234141;28;20036;-84
2023/12/28 08:56:39;;;;;;;18.17;2.90;;;11.10;99.90;;;;;;4216546;28;20097;-83
2023/12/28 08:58:39;;;;;;;19.67;2.55;;;11.00;99.90;;;;;;4232313;28;20051;-83
2023/12/28 09:00:40;;;;;;;19.77;3.42;;;11.20;99.90;;;;;;4249674;27;20046;-84
2023/12/28 09:02:41;;;;;;;23.88;4.70;;;11.80;99.90;;;;;;4216778;28;20097;-83
2023/12/28 09:04:42;;;;;;;24.77;3.83;;;11.10;99.90;;;;;;4259722;27;20120;-82
2023/12/28 09:06:44;;;;;;;17.20;2.63;;;10.50;99.90;;;;;;4265458;27;20058;-82
2023/12/28 09:08:47;;;;;;;11.05;2.28;;;11.10;99.90;;;;;;4266629;27;20031;-82
2023/12/28 09:10:47;;;;;;;29.58;3.63;;;11.20;99.90;;;;;;4248431;28;20055;-83
2023/12/28 09:12:48;;;;;;;22.67;3.58;;;11.50;99.90;;;;;;4253338;27;20043;-82
2023/12/28 09:14:52;;;;;;;18.02;3.05;;;11.20;99.90;;;;;;4233351;28;20114;-83
2023/12/28 09:16:52;;;;;;;14.43;2.70;;;11.20;99.90;;;;;;4250896;27;20075;-82
2023/12/28 09:18:53;;;;;;;25.13;2.83;;;11.20;99.90;;;;;;4250709;27;20457;-82
2023/12/28 09:20:55;;;;;;;23.33;3.20;;;11.30;99.90;;;;;;4250970;27;20061;-83
2023/12/28 09:22:56;;;;;;;16.70;2.83;;;11.20;99.90;;;;;;4232585;28;20054;-82
2023/12/28 09:24:56;;;;;;;15.50;2.95;;;11.20;99.90;;;;;;4232161;28;20047;-82
2023/12/28 09:26:57;;;;;;;12.70;2.05;;;11.20;99.90;;;;;;4250505;27;20047;-82
2023/12/28 09:28:58;;;;;;;21.83;3.30;;;11.30;99.90;;;;;;4251523;27;20070;-83
2023/12/28 09:30:59;;;;;;;19.15;2.42;;;11.20;99.90;;;;;;4236346;28;20076;-82
2023/12/28 09:33:01;;;;;;;18.33;3.38;;;11.20;99.90;;;;;;4255390;27;20039;-83
2023/12/28 09:35:03;;;;;;;15.18;3.05;;;11.40;99.90;;;;;;4234123;28;20488;-83
2023/12/28 09:37:03;;;;;;;24.45;4.70;;;11.20;99.90;;;;;;4234275;28;20126;-82
2023/12/28 09:39:06;;;;;;;20.60;3.17;;;11.20;99.90;;;;;;4231038;28;20055;-83
2023/12/28 09:41:17;;;;;;;25.02;2.88;;;11.30;99.90;;;;;;4230766;28;20140;-83
2023/12/28 09:43:29;;;;;;;12.98;2.58;;;12.60;99.90;;;;;;4248649;27;20838;-83
2023/12/28 09:45:30;;;;;;;24.20;3.95;;;12.10;99.90;;;;;;4230314;28;20043;-83
2023/12/28 09:47:33;;;;;;;22.67;3.83;;;11.40;99.90;;;;;;4249908;27;20537;-83
2023/12/28 09:49:37;;;;;;;31.60;3.53;;;11.50;99.90;;;;;;4248250;27;20047;-83
2023/12/28 09:51:39;;;;;;;19.42;3.15;;;11.20;99.90;;;;;;4248827;27;20137;-83
2023/12/28 09:53:39;;;;;;;15.88;2.40;;;11.70;99.90;;;;;;4230309;28;20070;-83
2023/12/28 09:55:40;;;;;;;18.48;3.25;;;11.40;99.90;;;;;;4248490;27;20039;-83
2023/12/28 09:57:42;;;;;;;22.30;3.55;;;11.20;99.90;;;;;;4230215;28;20048;-83
2023/12/28 09:59:44;;;;;;;23.15;2.80;;;11.20;99.90;;;;;;4249162;27;20043;-83
2023/12/28 10:01:46;;;;;;;18.33;2.92;;;11.20;99.90;;;;;;4230017;28;20123;-84
2023/12/28 10:03:47;;;;;;;20.27;3.20;;;11.20;99.90;;;;;;4230262;28;20549;-83
2023/12/28 10:05:48;;;;;;;16.95;3.08;;;11.10;99.90;;;;;;4229893;28;20047;-83
2023/12/28 10:07:50;;;;;;;17.40;2.47;;;11.40;99.90;;;;;;4230553;28;20051;-83
2023/12/28 10:09:51;;;;;;;15.90;2.72;;;11.20;99.90;;;;;;4240437;28;20056;-83
2023/12/28 10:11:54;;;;;;;11.57;1.70;;;11.10;99.90;;;;;;4251263;28;20069;-83
2023/12/28 10:13:57;;;;;;;19.58;3.15;;;11.10;99.90;;;;;;4267997;28;20035;-83
2023/12/28 10:15:59;;;;;;;18.50;2.80;;;11.10;99.90;;;;;;4249694;28;20607;-83
2023/12/28 10:18:00;;;;;;;20.98;3.65;;;11.10;99.90;;;;;;4232606;28;20056;-83
2023/12/28 10:20:04;;;;;;;16.63;2.45;;;11.20;99.90;;;;;;4267175;28;20043;-83
2023/12/28 10:22:05;;;;;;;30.73;3.45;;;11.30;99.90;;;;;;4264876;27;20071;-83
2023/12/28 10:24:06;;;;;;;17.55;3.10;;;11.50;99.90;;;;;;4250477;28;20043;-83
2023/12/28 10:26:08;;;;;;;16.58;3.20;;;11.10;99.90;;;;;;4240571;28;20134;-83
2023/12/28 10:28:12;;;;;;;21.17;2.13;;;10.90;99.90;;;;;;4233969;28;20090;-83
2023/12/28 10:30:12;;;;;;;18.63;3.10;;;11.00;99.90;;;;;;4251915;27;20058;-83